createdAt,value
2017-06-13T00:00:51.487Z,21.54
2017-06-13T00:03:15.686Z,21.4
2017-06-13T00:05:31.369Z,21.35
2017-06-13T00:07:47.061Z,21.38
2017-06-13T00:10:02.739Z,21.32
2017-06-13T00:12:26.818Z,21.4
2017-06-13T00:14:50.899Z,21.38
2017-06-13T00:17:14.977Z,21.32
2017-06-13T00:19:39.067Z,21.28
2017-06-13T00:22:03.149Z,21.2
2017-06-13T00:24:27.247Z,21.11
2017-06-13T00:26:42.923Z,21.11
2017-06-13T00:29:06.992Z,21.14
2017-06-13T00:31:30.976Z,21.08
2017-06-13T00:33:32.464Z,20.68
2017-06-13T00:35:56.510Z,20.85
2017-06-13T00:38:20.589Z,20.71
2017-06-13T00:40:44.673Z,20.68
2017-06-13T00:43:08.756Z,20.8
2017-06-13T00:45:32.829Z,20.73
2017-06-13T00:47:56.818Z,20.52
2017-06-13T00:50:12.505Z,20.37
2017-06-13T00:52:36.584Z,20.52
2017-06-13T00:54:37.960Z,20.44
2017-06-13T00:57:02.021Z,20.63
2017-06-13T00:59:26.098Z,20.63
2017-06-13T01:01:41.780Z,20.67
2017-06-13T01:04:05.864Z,20.67
2017-06-13T01:06:29.947Z,20.49
2017-06-13T01:08:54.049Z,20.39
2017-06-13T01:11:18.105Z,20.52
2017-06-13T01:13:42.188Z,20.58
2017-06-13T01:16:06.270Z,20.48
2017-06-13T01:18:30.354Z,20.18
2017-06-13T01:20:54.334Z,20.32
2017-06-13T01:23:18.313Z,20.17
2017-06-13T01:25:42.394Z,20.15
2017-06-13T01:28:06.375Z,19.93
2017-06-13T01:30:21.959Z,19.84
2017-06-13T01:32:45.935Z,19.74
2017-06-13T01:35:09.922Z,19.81
2017-06-13T01:37:33.914Z,19.67
2017-06-13T01:39:57.873Z,19.67
2017-06-13T01:42:21.956Z,19.49
2017-06-13T01:44:45.937Z,19.7
2017-06-13T01:47:01.513Z,19.66
2017-06-13T01:49:25.499Z,19.7
2017-06-13T01:51:49.478Z,19.55
2017-06-13T01:54:13.455Z,19.74
2017-06-13T01:56:29.030Z,19.66
2017-06-13T01:58:53.017Z,19.53
2017-06-13T02:00:54.845Z,19.71
2017-06-13T02:03:18.859Z,19.66
2017-06-13T02:05:42.839Z,19.71
2017-06-13T02:08:06.817Z,19.07
2017-06-13T02:10:30.800Z,19.3
2017-06-13T02:12:54.777Z,19.32
2017-06-13T02:15:18.753Z,19.35
2017-06-13T02:17:42.736Z,19.16
2017-06-13T02:20:06.711Z,19.45
2017-06-13T02:22:30.694Z,19.3
2017-06-13T02:24:32.148Z,19.27
2017-06-13T02:26:56.124Z,19.19
2017-06-13T02:29:19.999Z,19.2
2017-06-13T02:31:43.977Z,19.22
2017-06-13T02:34:07.961Z,19.32
2017-06-13T02:36:31.947Z,19.34
2017-06-13T02:38:55.920Z,19.23
2017-06-13T02:41:19.901Z,19.34
2017-06-13T02:43:43.881Z,19.27
2017-06-13T02:46:07.861Z,19.42
2017-06-13T02:48:31.837Z,19.42
2017-06-13T02:50:55.816Z,19.44
2017-06-13T02:53:19.797Z,19.53
2017-06-13T02:55:30.148Z,19.71
2017-06-13T02:57:54.135Z,19.57
2017-06-13T03:00:18.118Z,19.66
2017-06-13T03:02:42.093Z,19.71
2017-06-13T03:05:06.071Z,19.67
2017-06-13T03:07:29.952Z,19.67
2017-06-13T03:09:45.429Z,19.48
2017-06-13T03:12:09.409Z,19.63
2017-06-13T03:14:33.395Z,19.67
2017-06-13T03:16:57.370Z,19.67
2017-06-13T03:19:21.346Z,19.79
2017-06-13T03:21:45.332Z,19.78
2017-06-13T03:24:09.313Z,19.6
2017-06-13T03:26:33.290Z,19.67
2017-06-13T03:28:57.268Z,19.7
2017-06-13T03:31:21.247Z,19.79
2017-06-13T03:33:45.224Z,19.74
2017-06-13T03:37:36.398Z,19.92
2017-06-13T03:40:00.430Z,20.03
2017-06-13T03:42:24.411Z,20
2017-06-13T03:44:48.388Z,20.14
2017-06-13T03:47:03.974Z,20.14
2017-06-13T03:49:27.952Z,20.19
2017-06-13T03:51:51.934Z,20.15
2017-06-13T03:54:15.908Z,20.18
2017-06-13T03:56:08.826Z,20.36
2017-06-13T03:58:32.839Z,20.22
2017-06-13T04:00:56.822Z,20.18
2017-06-13T04:03:12.300Z,20.27
2017-06-13T04:05:27.883Z,20.59
2017-06-13T04:07:51.866Z,20.22
2017-06-13T04:10:15.849Z,20.36
2017-06-13T04:12:39.923Z,20.7
2017-06-13T04:15:04.009Z,21.13
2017-06-13T04:17:19.593Z,21.23
2017-06-13T04:19:43.670Z,21.78
2017-06-13T04:22:07.754Z,23.95
2017-06-13T04:24:23.543Z,25.67
2017-06-13T04:26:47.829Z,27.1
2017-06-13T04:28:49.264Z,29.12
2017-06-13T04:31:05.375Z,30.06
2017-06-13T04:33:30.074Z,32.02
2017-06-13T04:35:54.867Z,33.26
2017-06-13T04:38:19.768Z,35.01
2017-06-13T04:40:36.272Z,35.1
2017-06-13T04:43:01.378Z,35.41
2017-06-13T04:45:18.087Z,36.92
2017-06-13T04:47:43.397Z,36.97
2017-06-13T04:50:08.810Z,37.28
2017-06-13T04:52:34.427Z,39.45
2017-06-13T04:54:51.547Z,39.94
2017-06-13T04:57:17.271Z,40.54
2017-06-13T04:59:34.595Z,41.83
2017-06-13T05:01:51.914Z,42.12
2017-06-13T05:04:17.840Z,42.18
2017-06-13T05:06:43.866Z,40.57
2017-06-13T05:09:01.396Z,42.2
2017-06-13T05:11:27.626Z,44.79
2017-06-13T05:13:45.362Z,44.21
2017-06-13T05:16:11.694Z,44.62
2017-06-13T05:18:38.133Z,43.69
2017-06-13T05:20:40.585Z,42.84
2017-06-13T05:23:07.146Z,41
2017-06-13T05:25:33.685Z,41.8
2017-06-13T05:27:51.622Z,46.05
2017-06-13T05:30:09.666Z,49.12
2017-06-13T05:32:36.303Z,48.51
2017-06-13T05:35:02.950Z,47.66
2017-06-13T05:37:29.693Z,48.44
2017-06-13T05:39:56.539Z,50.56
2017-06-13T05:42:23.381Z,48.51
2017-06-13T05:44:50.333Z,50.67
2017-06-13T05:47:17.290Z,50.98
2017-06-13T05:49:35.734Z,49.62
2017-06-13T05:51:54.186Z,47.34
2017-06-13T05:54:21.338Z,51.06
2017-06-13T05:56:48.491Z,52.25
2017-06-13T05:59:15.645Z,52.4
2017-06-13T06:01:42.900Z,52.17
2017-06-13T06:04:10.260Z,52.33
2017-06-13T06:06:37.619Z,54.07
2017-06-13T06:09:06.009Z,53.75
2017-06-13T06:11:33.464Z,50.06
2017-06-13T06:14:00.928Z,51.17
2017-06-13T06:16:28.391Z,51.35
2017-06-13T06:18:55.848Z,51.78
2017-06-13T06:21:23.310Z,52.74
2017-06-13T06:23:42.117Z,51.04
2017-06-13T06:26:01.028Z,52.33
2017-06-13T06:28:28.544Z,54.09
2017-06-13T06:30:56.151Z,50.47
2017-06-13T06:33:15.112Z,44.55
2017-06-13T06:35:42.780Z,42.33
2017-06-13T06:38:10.448Z,42.47
2017-06-13T06:40:38.010Z,42.07
2017-06-13T06:42:49.501Z,42.4
2017-06-13T06:45:17.059Z,41.12
2017-06-13T06:47:35.828Z,40.61
2017-06-13T06:50:04.101Z,38.85
2017-06-13T06:52:32.177Z,39.44
2017-06-13T06:54:59.119Z,37.57
2017-06-13T06:57:25.767Z,34.75
2017-06-13T06:59:52.301Z,35.96
2017-06-13T07:02:10.047Z,36.87
2017-06-13T07:04:36.271Z,35.45
2017-06-13T07:07:02.396Z,37.91
2017-06-13T07:09:28.429Z,37.94
2017-06-13T07:11:45.949Z,37.88
2017-06-13T07:14:11.983Z,38.23
2017-06-13T07:16:38.014Z,40.31
2017-06-13T07:18:55.445Z,37.45
2017-06-13T07:21:21.370Z,39.67
2017-06-13T07:23:38.694Z,39.37
2017-06-13T07:26:04.615Z,37.41
2017-06-13T07:28:30.431Z,39.54
2017-06-13T07:30:56.360Z,40.08
2017-06-13T07:33:13.679Z,40.04
2017-06-13T07:35:39.616Z,40.54
2017-06-13T07:37:57.036Z,39.73
2017-06-13T07:40:07.496Z,39.94
2017-06-13T07:42:24.920Z,39.45
2017-06-13T07:44:50.952Z,38.12
2017-06-13T07:47:16.978Z,37.45
2017-06-13T07:49:42.902Z,38.47
2017-06-13T07:52:08.831Z,38.05
2017-06-13T07:54:34.760Z,39.37
2017-06-13T07:57:00.678Z,39.34
2017-06-13T07:59:26.608Z,37.97
2017-06-13T08:01:52.627Z,38.46
2017-06-13T08:04:10.158Z,38.85
2017-06-13T08:06:21.146Z,39.08
2017-06-13T08:08:47.265Z,39.68
2017-06-13T08:11:04.743Z,40.86
2017-06-13T08:13:22.323Z,39.56
2017-06-13T08:15:48.453Z,41.14
2017-06-13T08:18:14.582Z,42.68
2017-06-13T08:20:32.109Z,40.78
2017-06-13T08:22:58.241Z,42.15
2017-06-13T08:25:15.827Z,41
2017-06-13T08:27:41.997Z,37.98
2017-06-13T08:29:59.629Z,39.95
2017-06-13T08:32:17.260Z,40.49
2017-06-13T08:34:43.392Z,40.13
2017-06-13T08:37:00.922Z,40.86
2017-06-13T08:39:27.048Z,41.8
2017-06-13T08:41:44.577Z,41.65
2017-06-13T08:44:10.706Z,42.29
2017-06-13T08:46:36.839Z,42.99
2017-06-13T08:48:30.766Z,42.96
2017-06-13T08:50:56.939Z,41.23
2017-06-13T08:53:14.460Z,41
2017-06-13T08:55:40.604Z,40.14
2017-06-13T08:58:06.622Z,41.53
2017-06-13T09:00:32.759Z,40.83
2017-06-13T09:02:58.890Z,40.86
2017-06-13T09:05:24.902Z,42.15
2017-06-13T09:07:33.836Z,42.94
2017-06-13T09:09:35.695Z,42.39
2017-06-13T09:11:53.231Z,41.84
2017-06-13T09:14:19.360Z,39.52
2017-06-13T09:16:37.915Z,40.86
2017-06-13T09:19:04.950Z,41.23
2017-06-13T09:21:32.004Z,39.95
2017-06-13T09:23:59.133Z,40.73
2017-06-13T09:26:25.196Z,38.63
2017-06-13T09:28:52.254Z,39.75
2017-06-13T09:31:18.378Z,40.62
2017-06-13T09:33:44.513Z,40.55
2017-06-13T09:36:10.538Z,41.2
2017-06-13T09:38:36.566Z,39.6
2017-06-13T09:41:02.595Z,41.04
2017-06-13T09:43:11.518Z,41.22
2017-06-13T09:45:28.946Z,42.44
2017-06-13T09:47:54.873Z,42.28
2017-06-13T09:50:20.891Z,39.19
2017-06-13T09:52:46.831Z,39.61
2017-06-13T09:54:48.720Z,39.1
2017-06-13T09:57:07.123Z,38.41
2017-06-13T09:59:32.909Z,39.23
2017-06-13T10:01:58.677Z,38.31
2017-06-13T10:04:24.503Z,37.88
2017-06-13T10:06:50.217Z,36.87
2017-06-13T10:09:15.941Z,35.9
2017-06-13T10:11:41.659Z,35.23
2017-06-13T10:14:07.280Z,35.79
2017-06-13T10:16:32.897Z,36.18
2017-06-13T10:18:58.506Z,36.01
2017-06-13T10:21:24.129Z,34.89
2017-06-13T10:23:49.646Z,34.79
2017-06-13T10:26:15.165Z,34.82
2017-06-13T10:28:40.680Z,33.31
2017-06-13T10:31:06.091Z,32.79
2017-06-13T10:33:31.508Z,33.82
2017-06-13T10:35:56.917Z,34.29
2017-06-13T10:38:22.330Z,33.98
2017-06-13T10:40:47.739Z,34.41
2017-06-13T10:43:04.659Z,34.51
2017-06-13T10:45:29.967Z,33.48
2017-06-13T10:47:55.279Z,33.16
2017-06-13T10:50:20.594Z,33.42
2017-06-13T10:52:37.299Z,33.35
2017-06-13T10:55:02.606Z,32.46
2017-06-13T10:57:27.820Z,32.19
2017-06-13T10:59:38.595Z,31.78
2017-06-13T11:02:03.904Z,32.54
2017-06-13T11:04:29.107Z,32.85
2017-06-13T11:06:54.317Z,32.3
2017-06-13T11:09:19.530Z,31.25
2017-06-13T11:11:21.145Z,31.36
2017-06-13T11:13:37.785Z,31.14
2017-06-13T11:16:02.893Z,31.81
2017-06-13T11:18:27.990Z,31.73
2017-06-13T11:20:53.109Z,31.17
2017-06-13T11:23:18.207Z,31.18
2017-06-13T11:25:34.813Z,31.45
2017-06-13T11:27:59.928Z,32.01
2017-06-13T11:30:25.028Z,31.7
2017-06-13T11:32:50.076Z,31.17
2017-06-13T11:35:15.141Z,31.52
2017-06-13T11:37:40.248Z,31.47
2017-06-13T11:40:05.346Z,31.14
2017-06-13T11:42:07.143Z,30.95
2017-06-13T11:44:09.316Z,31.37
2017-06-13T11:46:34.380Z,31.37
2017-06-13T11:48:59.489Z,31.63
2017-06-13T11:51:24.598Z,32.17
2017-06-13T11:53:49.699Z,31.95
2017-06-13T11:56:14.804Z,31.57
2017-06-13T11:58:39.911Z,32.19
2017-06-13T12:01:05.017Z,31.79
2017-06-13T12:03:13.124Z,32.01
2017-06-13T12:05:38.128Z,31.59
2017-06-13T12:07:54.741Z,31.25
2017-06-13T12:10:19.743Z,30.73
2017-06-13T12:12:44.743Z,30.77
2017-06-13T12:15:09.752Z,30.51
2017-06-13T12:17:34.752Z,31.42
2017-06-13T12:19:59.752Z,31.87
2017-06-13T12:22:16.258Z,32.04
2017-06-13T12:24:41.263Z,31.42
2017-06-13T12:27:06.366Z,31.44
2017-06-13T12:29:31.378Z,31.52
2017-06-13T12:31:39.377Z,30.78
2017-06-13T12:34:04.356Z,31.32
2017-06-13T12:36:29.361Z,31.66
2017-06-13T12:38:54.373Z,31.57
2017-06-13T12:41:19.381Z,32.26
2017-06-13T12:43:44.376Z,32.59
2017-06-13T12:45:52.417Z,31.98
2017-06-13T12:48:08.972Z,31.14
2017-06-13T12:50:34.022Z,30.98
2017-06-13T12:52:59.069Z,31.57
2017-06-13T12:55:24.108Z,31.73
2017-06-13T12:57:40.633Z,31.89
2017-06-13T12:59:42.244Z,32.17
2017-06-13T13:02:07.341Z,32.08
2017-06-13T13:04:23.894Z,30.86
2017-06-13T13:06:31.939Z,30.51
2017-06-13T13:08:56.918Z,30.08
2017-06-13T13:11:21.907Z,31.17
2017-06-13T13:13:46.861Z,31.36
2017-06-13T13:16:11.797Z,30.39
2017-06-13T13:18:36.711Z,30.86
2017-06-13T13:20:53.170Z,31.11
2017-06-13T13:23:18.109Z,31.33
2017-06-13T13:25:43.070Z,31.66
2017-06-13T13:28:08.043Z,31.15
2017-06-13T13:30:32.964Z,30.91
2017-06-13T13:32:57.874Z,30.58
2017-06-13T13:35:22.820Z,30.83
2017-06-13T13:37:24.451Z,31.15
2017-06-13T13:39:40.924Z,30.96
2017-06-13T13:42:05.891Z,30.39
2017-06-13T13:44:22.349Z,30.73
2017-06-13T13:46:47.280Z,31.28
2017-06-13T13:49:12.239Z,30.96
2017-06-13T13:51:37.151Z,31.14
2017-06-13T13:53:53.617Z,31.39
2017-06-13T13:56:18.544Z,30.54
2017-06-13T13:58:43.466Z,29.74
2017-06-13T14:00:37.064Z,30.76
2017-06-13T14:02:39.181Z,31.13
2017-06-13T14:04:55.671Z,30.81
2017-06-13T14:07:12.116Z,30.76
2017-06-13T14:09:37.040Z,30.81
2017-06-13T14:12:01.933Z,30.71
2017-06-13T14:14:18.369Z,30.44
2017-06-13T14:16:43.274Z,30.67
2017-06-13T14:19:08.179Z,30.4
2017-06-13T14:21:24.637Z,30.24
2017-06-13T14:23:49.564Z,30.54
2017-06-13T14:25:51.149Z,30.1
2017-06-13T14:28:16.093Z,30.81
2017-06-13T14:30:40.955Z,30.96
2017-06-13T14:33:05.849Z,30.81
2017-06-13T14:35:07.445Z,29.81
2017-06-13T14:37:32.376Z,30.31
2017-06-13T14:39:57.255Z,30.06
2017-06-13T14:42:22.144Z,29.99
2017-06-13T14:44:47.026Z,29.9
2017-06-13T14:47:11.920Z,29.71
2017-06-13T14:49:36.824Z,29.84
2017-06-13T14:52:01.698Z,29.68
2017-06-13T14:54:18.088Z,30.02
2017-06-13T14:56:42.971Z,29.64
2017-06-13T14:58:36.542Z,29.25
2017-06-13T15:00:52.871Z,28.77
2017-06-13T15:03:00.723Z,29
2017-06-13T15:05:25.518Z,28.71
2017-06-13T15:07:50.315Z,28.89
2017-06-13T15:10:15.106Z,28.7
2017-06-13T15:12:39.898Z,28.43
2017-06-13T15:15:04.705Z,28.9
2017-06-13T15:17:29.489Z,29.2
2017-06-13T15:19:54.278Z,28.78
2017-06-13T15:22:19.011Z,28.86
2017-06-13T15:24:35.322Z,29.09
2017-06-13T15:26:37.318Z,28.52
2017-06-13T15:29:02.095Z,29.13
2017-06-13T15:31:03.637Z,29.02
2017-06-13T15:33:28.453Z,28.68
2017-06-13T15:35:38.580Z,28.72
2017-06-13T15:38:03.378Z,28.67
2017-06-13T15:40:28.095Z,29.12
2017-06-13T15:42:52.870Z,28.87
2017-06-13T15:45:17.635Z,28.89
2017-06-13T15:47:42.393Z,28.41
2017-06-13T15:50:07.150Z,28.47
2017-06-13T15:52:31.917Z,28.84
2017-06-13T15:54:57.657Z,29
2017-06-13T15:57:22.343Z,28.35
2017-06-13T15:59:47.070Z,28.33
2017-06-13T16:02:03.300Z,28.57
2017-06-13T16:04:19.535Z,28.22
2017-06-13T16:06:44.249Z,28.01
2017-06-13T16:09:08.953Z,28.25
2017-06-13T16:11:33.666Z,28.33
2017-06-13T16:13:58.383Z,28.16
2017-06-13T16:16:23.133Z,28.12
2017-06-13T16:18:39.355Z,27.63
2017-06-13T16:21:04.000Z,27.6
2017-06-13T16:23:20.186Z,28.03
2017-06-13T16:25:44.815Z,27.83
2017-06-13T16:28:09.494Z,27.75
2017-06-13T16:30:34.159Z,27.71
2017-06-13T16:32:50.339Z,27.68
2017-06-13T16:35:15.007Z,28.06
2017-06-13T16:37:39.658Z,28.28
2017-06-13T16:40:04.359Z,28.2
2017-06-13T16:42:29.005Z,27.88
2017-06-13T16:44:53.677Z,27.41
2017-06-13T16:47:09.891Z,27.38
2017-06-13T16:49:34.571Z,27.08
2017-06-13T16:51:59.229Z,27.55
2017-06-13T16:54:23.884Z,27.71
2017-06-13T16:56:40.036Z,27.29
2017-06-13T16:58:42.087Z,27.38
2017-06-13T17:00:58.221Z,27.05
2017-06-13T17:03:22.842Z,26.89
2017-06-13T17:05:47.433Z,27.13
2017-06-13T17:08:12.055Z,27.16
2017-06-13T17:10:22.640Z,27.1
2017-06-13T17:12:47.318Z,27.1
2017-06-13T17:15:18.984Z,26.7
2017-06-13T17:17:21.984Z,26.98
2017-06-13T17:19:46.616Z,27.08
2017-06-13T17:22:11.153Z,27.52
2017-06-13T17:24:27.200Z,27.35
2017-06-13T17:26:43.310Z,27.38
2017-06-13T17:29:07.859Z,27.07
2017-06-13T17:31:24.027Z,27.18
2017-06-13T17:33:40.096Z,26.76
2017-06-13T17:36:04.627Z,26.52
2017-06-13T17:38:29.187Z,26.85
2017-06-13T17:40:45.273Z,26.71
2017-06-13T17:43:09.785Z,26.66
2017-06-13T17:45:34.345Z,26.59
2017-06-13T17:47:58.996Z,27
2017-06-13T17:50:23.491Z,26.88
2017-06-13T17:52:39.678Z,27.23
2017-06-13T17:55:04.267Z,27.16
2017-06-13T17:57:28.865Z,26.92
2017-06-13T17:59:53.406Z,26.67
2017-06-13T18:02:18.051Z,26.85
2017-06-13T18:04:42.654Z,26.71
2017-06-13T18:07:07.248Z,26.66
2017-06-13T18:09:31.817Z,26.52
2017-06-13T18:12:03.437Z,26.63
2017-06-13T18:14:13.961Z,26.81
2017-06-13T18:16:38.550Z,26.7
2017-06-13T18:19:03.147Z,26.06
2017-06-13T18:21:19.235Z,26.3
2017-06-13T18:23:43.834Z,26.04
2017-06-13T18:26:08.425Z,25.98
2017-06-13T18:28:33.013Z,26.18
2017-06-13T18:30:57.509Z,26.23
2017-06-13T18:33:22.004Z,26.31
2017-06-13T18:35:23.494Z,26.42
2017-06-13T18:37:34.014Z,26.33
2017-06-13T18:39:58.620Z,26.01
2017-06-13T18:42:23.070Z,26.33
2017-06-13T18:44:39.202Z,26.11
2017-06-13T18:47:03.791Z,26.01
2017-06-13T18:49:28.246Z,26.06
2017-06-13T18:51:52.781Z,25.74
2017-06-13T18:54:08.779Z,25.88
2017-06-13T18:56:33.258Z,25.81
2017-06-13T18:58:57.752Z,25.56
2017-06-13T19:01:22.241Z,25.68
2017-06-13T19:03:46.746Z,25.4
2017-06-13T19:06:11.227Z,25.24
2017-06-13T19:08:27.217Z,25.07
2017-06-13T19:10:51.613Z,25.09
2017-06-13T19:13:07.600Z,24.48
2017-06-13T19:15:32.092Z,24.77
2017-06-13T19:17:48.087Z,24.79
2017-06-13T19:20:12.468Z,24.65
2017-06-13T19:22:28.468Z,24.47
2017-06-13T19:24:52.856Z,24.71
2017-06-13T19:27:17.243Z,24.43
2017-06-13T19:29:41.634Z,24.28
2017-06-13T19:31:52.122Z,24.32
2017-06-13T19:34:16.584Z,24.36
2017-06-13T19:36:18.507Z,24.32
2017-06-13T19:38:42.953Z,24.21
2017-06-13T19:41:07.329Z,24.32
2017-06-13T19:42:43.165Z,24.28
2017-06-13T19:45:07.705Z,24.1
2017-06-13T19:47:32.073Z,24.34
2017-06-13T19:49:56.468Z,24.36
2017-06-13T19:52:20.826Z,24.14
2017-06-13T19:54:36.836Z,23.99
2017-06-13T19:56:38.771Z,23.79
2017-06-13T19:59:03.183Z,23.67
2017-06-13T20:01:19.071Z,24.1
2017-06-13T20:03:43.361Z,24.04
2017-06-13T20:06:07.647Z,23.95
2017-06-13T20:08:32.034Z,23.95
2017-06-13T20:10:56.423Z,23.94
2017-06-13T20:12:49.901Z,24.21
2017-06-13T20:15:14.274Z,23.7
2017-06-13T20:17:30.164Z,23.62
2017-06-13T20:19:54.556Z,23.77
2017-06-13T20:22:18.979Z,23.77
2017-06-13T20:24:20.875Z,23.56
2017-06-13T20:26:45.300Z,23.34
2017-06-13T20:28:47.224Z,23.2
2017-06-13T20:30:58.697Z,22.93
2017-06-13T20:33:23.028Z,23.2
2017-06-13T20:35:47.320Z,23.08
2017-06-13T20:38:11.704Z,23.16
2017-06-13T20:40:35.997Z,23.11
2017-06-13T20:42:51.782Z,22.71
2017-06-13T20:45:16.070Z,22.51
2017-06-13T20:47:40.354Z,22.86
2017-06-13T20:50:04.643Z,22.59
2017-06-13T20:52:28.932Z,22.36
2017-06-13T20:54:30.826Z,22.33
2017-06-13T20:56:55.180Z,22.3
2017-06-13T20:59:10.969Z,22.12
2017-06-13T21:01:35.259Z,22.23
2017-06-13T21:03:59.540Z,22
2017-06-13T21:06:23.839Z,21.97
2017-06-13T21:08:50.068Z,22.03
2017-06-13T21:11:14.272Z,21.94
2017-06-13T21:13:38.426Z,22.14
2017-06-13T21:16:02.612Z,22.08
2017-06-13T21:18:26.794Z,22.16
2017-06-13T21:20:50.981Z,22.1
2017-06-13T21:23:15.166Z,22.07
2017-06-13T21:25:22.565Z,22.25
2017-06-13T21:27:46.743Z,22.21
2017-06-13T21:30:10.930Z,22.41
2017-06-13T21:32:35.120Z,22.26
2017-06-13T21:34:59.293Z,22.37
2017-06-13T21:37:15.079Z,22.19
2017-06-13T21:39:39.267Z,22.22
2017-06-13T21:42:03.450Z,22.01
2017-06-13T21:44:27.633Z,21.99
2017-06-13T21:46:51.818Z,22.16
2017-06-13T21:49:16.000Z,22
2017-06-13T21:51:40.187Z,22.25
2017-06-13T21:54:04.369Z,21.7
2017-06-13T21:56:28.553Z,21.69
2017-06-13T21:58:52.735Z,22.04
2017-06-13T22:01:16.925Z,22.03
2017-06-13T22:03:41.114Z,22.06
2017-06-13T22:06:05.297Z,21.41
2017-06-13T22:08:21.080Z,21.74
2017-06-13T22:10:45.261Z,21.65
2017-06-13T22:13:09.449Z,21.51
2017-06-13T22:15:10.841Z,21.44
2017-06-13T22:17:26.584Z,21.48
2017-06-13T22:19:50.767Z,21.19
2017-06-13T22:22:14.953Z,21.22
2017-06-13T22:24:39.139Z,21.23
2017-06-13T22:26:54.821Z,20.73
2017-06-13T22:29:19.006Z,21.03
2017-06-13T22:31:34.691Z,21.1
2017-06-13T22:33:36.680Z,21.04
2017-06-13T22:36:00.838Z,20.82
2017-06-13T22:38:24.921Z,20.73
2017-06-13T22:40:49.001Z,20.9
2017-06-13T22:43:13.086Z,20.88
2017-06-13T22:45:37.169Z,20.8
2017-06-13T22:47:52.849Z,21.11
2017-06-13T22:50:16.935Z,21.15
2017-06-13T22:52:41.014Z,21.07
2017-06-13T22:54:33.943Z,21.28
2017-06-13T22:56:58.046Z,21.4
2017-06-13T22:58:59.381Z,21.41
2017-06-13T23:01:23.581Z,21.15
2017-06-13T23:03:39.264Z,21.22
2017-06-13T23:06:03.347Z,21.13
2017-06-13T23:08:27.429Z,20.96
2017-06-13T23:10:51.509Z,21.11
2017-06-13T23:13:07.197Z,21.26
2017-06-13T23:15:31.381Z,21.53
2017-06-13T23:17:55.462Z,21.17
2017-06-13T23:19:31.779Z,21.23
2017-06-13T23:21:47.510Z,21.2
2017-06-13T23:24:03.192Z,21.17
2017-06-13T23:26:27.275Z,21.29
2017-06-13T23:28:42.963Z,21.17
2017-06-13T23:30:58.647Z,21.32
2017-06-13T23:33:22.725Z,21.43
2017-06-13T23:35:46.809Z,21.44
2017-06-13T23:38:10.890Z,21.29
2017-06-13T23:40:34.973Z,21.38
2017-06-13T23:42:50.656Z,21.38
2017-06-13T23:45:14.840Z,21.51
2017-06-13T23:47:38.923Z,21.15
2017-06-13T23:50:03.006Z,21.11
2017-06-13T23:52:18.694Z,20.73
2017-06-13T23:54:42.775Z,20.88
2017-06-13T23:56:44.135Z,20.59
2017-06-13T23:58:59.805Z,21
